This is the latest recevied weather packets stored in our database for station/object LRTZ. If no packets are shown the sender has not sent any weather packets the latest 10 day(s).
| Time | Temp. | Humidity | Pressure | Rain* | Wind** | Luminosity | Snow |
|---|---|---|---|---|---|---|---|
| 1777722537 | 12.78° C | 36% | 1022 hPa | - | - | - | - |
| 1777721642 | 12.78° C | 36% | 1022 hPa | - | - | - | - |
| 1777720742 | 12.78° C | 36% | 1022 hPa | - | - | - | - |
| 1777718943 | 12.78° C | 41% | 1022 hPa | - | - | - | - |
| 1777718043 | 12.78° C | 41% | 1022 hPa | - | - | - | - |
| 1777717139 | 12.78° C | 41% | 1022 hPa | - | - | - | - |
| 1777716242 | 12.78° C | 41% | 1022 hPa | - | - | - | - |
| 1777715339 | 12.78° C | 41% | 1022 hPa | - | - | - | - |
| 1777713542 | 12.78° C | 41% | 1022 hPa | - | - | - | - |
| 1777711750 | 11.11° C | 54% | 1022 hPa | - | - | - | - |
| 1777710843 | 11.11° C | 54% | 1022 hPa | - | - | - | - |
| 1777709942 | 11.11° C | 54% | 1022 hPa | - | - | - | - |
| 1777709042 | 11.11° C | 54% | 1022 hPa | - | - | - | - |
| 1777708142 | 12.22° C | 47% | 1022 hPa | - | - | - | - |
| 1777707242 | 12.22° C | 47% | 1022 hPa | - | - | - | - |
| 1777706343 | 12.22° C | 47% | 1022 hPa | - | - | - | - |
| 1777705444 | 12.22° C | 47% | 1022 hPa | - | - | - | - |
| 1777704543 | 10° C | 58% | 1022 hPa | - | - | - | - |
| 1777703643 | 10° C | 58% | 1022 hPa | - | - | - | - |
| 1777702743 | 10° C | 58% | 1022 hPa | - | - | - | - |
| 1777700943 | 5° C | 70% | 1022 hPa | - | - | - | - |
| 1777700043 | 5° C | 70% | 1022 hPa | - | - | - | - |
| 1777699143 | 5° C | 70% | 1022 hPa | - | - | - | - |
| 1777698242 | 5° C | 70% | 1022 hPa | - | - | - | - |
| 1777697343 | 3.89° C | 70% | 1022 hPa | - | - | - | - |
* Rain since midnight (hover to see other rain measurements)
** Current wind speed in m/s (hover to see current wind gust speed)